createdAt,value
2018-11-12T00:00:17.694Z,8.50
2018-11-12T00:02:48.490Z,7.00
2018-11-12T00:05:16.521Z,7.40
2018-11-12T00:07:45.744Z,7.67
2018-11-12T00:10:13.757Z,7.83
2018-11-12T00:12:42.069Z,7.80
2018-11-12T00:15:11.059Z,7.10
2018-11-12T00:17:38.586Z,8.30
2018-11-12T00:20:06.797Z,8.93
2018-11-12T00:22:34.722Z,8.33
2018-11-12T00:25:04.210Z,8.47
2018-11-12T00:27:33.262Z,8.27
2018-11-12T00:30:02.306Z,7.30
2018-11-12T00:32:31.137Z,8.60
2018-11-12T00:35:00.430Z,8.00
2018-11-12T00:37:27.959Z,9.50
2018-11-12T00:39:56.733Z,9.23
2018-11-12T00:42:24.458Z,8.33
2018-11-12T00:44:52.093Z,9.63
2018-11-12T00:47:19.674Z,8.73
2018-11-12T00:49:47.281Z,8.33
2018-11-12T00:52:15.594Z,9.83
2018-11-12T00:54:43.708Z,10.23
2018-11-12T00:57:11.286Z,9.73
2018-11-12T00:59:38.866Z,11.47
2018-11-12T01:02:11.186Z,11.23
2018-11-12T01:04:39.394Z,10.53
2018-11-12T01:07:10.150Z,11.03
2018-11-12T01:09:39.244Z,10.23
2018-11-12T01:12:08.505Z,10.90
2018-11-12T01:14:36.858Z,11.77
2018-11-12T01:17:04.854Z,11.20
2018-11-12T01:19:32.519Z,11.00
2018-11-12T01:22:00.085Z,10.60
2018-11-12T01:24:27.946Z,10.80
2018-11-12T01:27:00.396Z,10.30
2018-11-12T01:29:28.185Z,10.77
2018-11-12T01:31:56.287Z,11.30
2018-11-12T01:34:23.956Z,10.00
2018-11-12T01:36:51.833Z,10.00
2018-11-12T01:39:20.209Z,11.50
2018-11-12T01:41:47.814Z,12.37
2018-11-12T01:44:15.886Z,12.87
2018-11-12T01:46:48.288Z,12.83
2018-11-12T01:49:18.209Z,12.23
2018-11-12T01:51:45.932Z,11.27
2018-11-12T01:54:13.503Z,11.00
2018-11-12T01:56:41.102Z,11.47
2018-11-12T01:59:08.714Z,10.87
2018-11-12T02:01:36.333Z,11.23
2018-11-12T02:04:03.844Z,12.10
2018-11-12T02:06:31.416Z,11.03
2018-11-12T02:08:59.039Z,11.80
2018-11-12T02:11:26.601Z,10.60
2018-11-12T02:13:54.164Z,13.00
2018-11-12T02:16:21.797Z,12.77
2018-11-12T02:18:49.385Z,12.63
2018-11-12T02:21:17.363Z,10.13
2018-11-12T02:23:45.291Z,12.70
2018-11-12T02:26:13.623Z,12.27
2018-11-12T02:28:42.180Z,12.00
2018-11-12T02:31:10.481Z,11.20
2018-11-12T02:33:39.422Z,13.03
2018-11-12T02:36:08.106Z,12.90
2018-11-12T02:38:35.802Z,11.30
2018-11-12T02:41:03.462Z,12.67
2018-11-12T02:43:31.200Z,10.30
2018-11-12T02:45:58.768Z,11.93
2018-11-12T02:48:26.282Z,13.17
2018-11-12T02:50:53.836Z,12.07
2018-11-12T02:53:21.374Z,12.57
2018-11-12T02:55:48.951Z,13.47
2018-11-12T02:58:16.573Z,10.70
2018-11-12T03:00:44.094Z,14.43
2018-11-12T03:03:11.632Z,13.17
2018-11-12T03:05:39.175Z,12.90
2018-11-12T03:08:06.742Z,11.70
2018-11-12T03:10:34.275Z,13.57
2018-11-12T03:13:01.879Z,11.77
2018-11-12T03:15:29.414Z,12.80
2018-11-12T03:17:56.999Z,13.20
2018-11-12T03:20:24.578Z,12.27
2018-11-12T03:22:52.164Z,15.00
2018-11-12T03:25:20.822Z,14.73
2018-11-12T03:27:48.953Z,13.43
2018-11-12T03:30:17.815Z,12.00
2018-11-12T03:32:46.205Z,11.53
2018-11-12T03:35:14.265Z,12.37
2018-11-12T03:37:43.070Z,13.97
2018-11-12T03:40:11.840Z,14.63
2018-11-12T03:42:39.471Z,13.13
2018-11-12T03:45:10.350Z,13.90
2018-11-12T03:47:38.205Z,13.93
2018-11-12T03:50:06.906Z,12.73
2018-11-12T03:52:34.482Z,14.37
2018-11-12T03:55:02.081Z,12.27
2018-11-12T03:57:29.639Z,12.50
2018-11-12T03:59:57.257Z,13.20
2018-11-12T04:02:24.860Z,13.97
2018-11-12T04:04:52.419Z,12.40
2018-11-12T04:07:19.979Z,13.90
2018-11-12T04:09:47.559Z,14.20
2018-11-12T04:12:15.120Z,13.17
2018-11-12T04:14:42.648Z,14.13
2018-11-12T04:17:10.220Z,12.00
2018-11-12T04:19:37.754Z,12.37
2018-11-12T04:22:06.146Z,13.13
2018-11-12T04:24:34.965Z,14.43
2018-11-12T04:27:02.787Z,13.80
2018-11-12T04:29:30.482Z,12.07
2018-11-12T04:31:58.769Z,12.50
2018-11-12T04:34:26.535Z,14.60
2018-11-12T04:36:55.125Z,14.70
2018-11-12T04:39:22.987Z,14.10
2018-11-12T04:41:50.747Z,12.90
2018-11-12T04:44:18.692Z,13.13
2018-11-12T04:46:47.689Z,12.87
2018-11-12T04:49:15.419Z,13.90
2018-11-12T04:51:43.870Z,14.40
2018-11-12T04:54:12.159Z,11.97
2018-11-12T04:56:40.136Z,13.33
2018-11-12T04:59:08.134Z,12.80
2018-11-12T05:01:37.058Z,12.17
2018-11-12T05:04:05.232Z,12.60
2018-11-12T05:06:33.822Z,12.67
2018-11-12T05:09:01.774Z,13.43
2018-11-12T05:11:29.687Z,13.53
2018-11-12T05:13:57.373Z,12.27
2018-11-12T05:16:25.035Z,13.20
2018-11-12T05:18:52.659Z,12.70
2018-11-12T05:21:20.219Z,14.73
2018-11-12T05:23:47.784Z,11.97
2018-11-12T05:26:15.389Z,14.50
2018-11-12T05:28:42.971Z,14.83
2018-11-12T05:31:10.607Z,13.80
2018-11-12T05:33:38.166Z,13.33
2018-11-12T05:36:05.956Z,13.47
2018-11-12T05:38:33.563Z,12.30
2018-11-12T05:41:01.194Z,14.97
2018-11-12T05:43:28.839Z,14.10
2018-11-12T05:45:56.484Z,13.83
2018-11-12T05:48:24.092Z,14.43
2018-11-12T05:50:51.701Z,14.30
2018-11-12T05:53:20.707Z,14.50
2018-11-12T05:55:51.145Z,14.70
2018-11-12T05:58:18.846Z,12.80
2018-11-12T06:00:46.473Z,17.40
2018-11-12T06:03:14.028Z,16.00
2018-11-12T06:05:41.559Z,15.40
2018-11-12T06:08:09.474Z,15.30
2018-11-12T06:10:37.047Z,15.00
2018-11-12T06:13:04.976Z,15.73
2018-11-12T06:15:32.558Z,15.87
2018-11-12T06:18:00.170Z,15.20
2018-11-12T06:20:29.099Z,13.70
2018-11-12T06:22:56.649Z,11.73
2018-11-12T06:25:25.522Z,14.73
2018-11-12T06:27:53.274Z,14.37
2018-11-12T06:30:24.968Z,13.33
2018-11-12T06:32:52.586Z,14.57
2018-11-12T06:35:20.655Z,14.10
2018-11-12T06:37:49.137Z,14.90
2018-11-12T06:40:18.942Z,13.17
2018-11-12T06:42:46.569Z,13.73
2018-11-12T06:45:15.793Z,13.90
2018-11-12T06:47:44.287Z,14.13
2018-11-12T06:50:13.432Z,20.90
2018-11-12T06:52:41.030Z,11.53
2018-11-12T06:55:09.967Z,12.53
2018-11-12T06:57:37.653Z,11.57
2018-11-12T07:00:07.136Z,12.10
2018-11-12T07:02:37.696Z,12.07
2018-11-12T07:05:06.271Z,12.40
2018-11-12T07:07:33.951Z,12.43
2018-11-12T07:10:01.506Z,12.27
2018-11-12T07:12:29.063Z,11.43
2018-11-12T07:14:56.660Z,11.43
2018-11-12T07:17:24.172Z,11.27
2018-11-12T07:19:52.547Z,11.87
2018-11-12T07:22:20.164Z,12.40
2018-11-12T07:24:47.749Z,11.43
2018-11-12T07:27:15.346Z,12.60
2018-11-12T07:29:42.911Z,12.67
2018-11-12T07:32:11.649Z,12.13
2018-11-12T07:34:39.622Z,12.20
2018-11-12T07:37:07.206Z,12.40
2018-11-12T07:39:34.813Z,10.83
2018-11-12T07:42:02.393Z,13.90
2018-11-12T07:44:29.959Z,13.27
2018-11-12T07:46:57.613Z,11.83
2018-11-12T07:49:26.645Z,12.43
2018-11-12T07:51:57.231Z,14.63
2018-11-12T07:54:25.236Z,13.07
2018-11-12T07:56:53.031Z,14.83
2018-11-12T07:59:20.800Z,14.97
2018-11-12T08:01:48.341Z,12.77
2018-11-12T08:04:16.062Z,14.17
2018-11-12T08:06:43.779Z,13.60
2018-11-12T08:09:13.285Z,13.50
2018-11-12T08:11:41.681Z,13.47
2018-11-12T08:14:09.540Z,14.97
2018-11-12T08:16:40.167Z,13.10
2018-11-12T08:19:08.191Z,14.03
2018-11-12T08:21:35.959Z,12.80
2018-11-12T08:24:04.216Z,14.83
2018-11-12T08:26:32.342Z,13.60
2018-11-12T08:28:59.931Z,11.87
2018-11-12T08:31:29.695Z,12.70
2018-11-12T08:33:57.267Z,12.17
2018-11-12T08:36:30.801Z,12.53
2018-11-12T08:39:01.240Z,12.70
2018-11-12T08:41:29.377Z,13.43
2018-11-12T08:43:57.987Z,12.10
2018-11-12T08:46:26.556Z,13.83
2018-11-12T08:48:56.022Z,12.17
2018-11-12T08:51:29.538Z,12.03
2018-11-12T08:53:58.457Z,10.90
2018-11-12T08:56:28.109Z,11.80
2018-11-12T08:58:56.220Z,10.67
2018-11-12T09:01:24.665Z,12.73
2018-11-12T09:03:52.757Z,10.47
2018-11-12T09:06:21.635Z,11.13
2018-11-12T09:08:50.019Z,13.80
2018-11-12T09:11:18.366Z,11.70
2018-11-12T09:13:47.060Z,11.47
2018-11-12T09:16:14.443Z,12.10
2018-11-12T09:18:43.730Z,11.80
2018-11-12T09:21:12.140Z,13.27
2018-11-12T09:23:40.825Z,13.13
2018-11-12T09:26:13.462Z,10.20
2018-11-12T09:28:43.057Z,10.80
2018-11-12T09:31:12.055Z,11.13
2018-11-12T09:33:41.105Z,10.40
2018-11-12T09:36:08.952Z,10.00
2018-11-12T09:38:37.215Z,9.77
2018-11-12T09:41:08.082Z,10.20
2018-11-12T09:43:36.197Z,10.70
2018-11-12T09:46:04.252Z,10.80
2018-11-12T09:48:33.903Z,8.97
2018-11-12T09:51:01.851Z,10.70
2018-11-12T09:53:29.549Z,9.33
2018-11-12T09:55:57.129Z,8.73
2018-11-12T09:58:24.778Z,9.60
2018-11-12T10:00:53.355Z,8.57
2018-11-12T10:03:28.247Z,7.33
2018-11-12T10:05:58.025Z,9.37
2018-11-12T10:08:26.613Z,9.80
2018-11-12T10:11:04.436Z,8.70
2018-11-12T10:13:33.570Z,10.90
2018-11-12T10:16:03.099Z,9.90
2018-11-12T10:18:32.141Z,8.73
2018-11-12T10:21:01.660Z,8.60
2018-11-12T10:23:31.224Z,9.13
2018-11-12T10:25:59.655Z,8.50
2018-11-12T10:28:28.874Z,7.73
2018-11-12T10:30:58.317Z,9.37
2018-11-12T10:33:33.104Z,8.43
2018-11-12T10:36:02.554Z,7.70
2018-11-12T10:38:30.803Z,8.60
2018-11-12T10:40:58.513Z,8.00
2018-11-12T10:43:26.848Z,9.10
2018-11-12T10:45:55.253Z,8.13
2018-11-12T10:48:24.073Z,8.47
2018-11-12T10:50:56.375Z,8.40
2018-11-12T10:53:19.191Z,9.47
2018-11-12T10:55:47.341Z,8.67
2018-11-12T10:58:20.350Z,8.73
2018-11-12T11:00:55.415Z,9.03
2018-11-12T11:03:31.756Z,9.07
2018-11-12T11:06:00.136Z,8.17
2018-11-12T11:08:30.348Z,7.23
2018-11-12T11:10:58.298Z,7.70
2018-11-12T11:13:26.140Z,8.00
2018-11-12T11:15:54.419Z,11.53
2018-11-12T11:18:21.947Z,7.97
2018-11-12T11:20:50.589Z,7.67
2018-11-12T11:23:18.194Z,7.40
2018-11-12T11:25:45.832Z,8.40
2018-11-12T11:28:14.838Z,7.10
2018-11-12T11:30:43.192Z,9.83
2018-11-12T11:33:11.426Z,7.30
2018-11-12T11:35:41.786Z,8.50
2018-11-12T11:38:12.806Z,8.33
2018-11-12T11:40:42.959Z,9.23
2018-11-12T11:43:11.315Z,8.83
2018-11-12T11:45:38.969Z,8.73
2018-11-12T11:48:06.800Z,8.67
2018-11-12T11:50:34.629Z,7.73
2018-11-12T11:53:02.881Z,7.30
2018-11-12T11:55:31.054Z,8.30
2018-11-12T11:58:00.509Z,7.67
2018-11-12T12:00:29.675Z,7.60
2018-11-12T12:02:58.603Z,6.97
2018-11-12T12:05:26.872Z,7.87
2018-11-12T12:07:55.114Z,6.83
2018-11-12T12:10:22.761Z,7.30
2018-11-12T12:12:51.054Z,6.67
2018-11-12T12:15:21.898Z,7.60
2018-11-12T12:17:50.503Z,7.13
2018-11-12T12:20:19.691Z,6.80
2018-11-12T12:22:47.285Z,7.00
2018-11-12T12:25:15.901Z,7.40
2018-11-12T12:27:44.173Z,7.70
2018-11-12T12:30:13.955Z,7.40
2018-11-12T12:32:42.095Z,7.53
2018-11-12T12:35:10.637Z,6.73
2018-11-12T12:37:38.304Z,7.63
2018-11-12T12:40:06.722Z,9.00
2018-11-12T12:42:34.271Z,7.07
2018-11-12T12:45:02.093Z,6.57
2018-11-12T12:47:29.486Z,8.13
2018-11-12T12:49:57.135Z,6.27
2018-11-12T12:52:25.341Z,5.47
2018-11-12T12:54:53.361Z,6.50
2018-11-12T12:57:20.936Z,5.00
2018-11-12T12:59:48.539Z,5.87
2018-11-12T13:02:16.406Z,5.97
2018-11-12T13:04:44.609Z,6.10
2018-11-12T13:07:12.214Z,6.07
2018-11-12T13:09:39.770Z,5.60
2018-11-12T13:12:07.310Z,5.57
2018-11-12T13:14:34.932Z,6.90
2018-11-12T13:17:03.186Z,5.50
2018-11-12T13:19:30.694Z,5.27
2018-11-12T13:21:58.282Z,5.80
2018-11-12T13:24:26.258Z,6.77
2018-11-12T13:26:54.080Z,7.20
2018-11-12T13:29:21.925Z,6.37
2018-11-12T13:31:49.810Z,6.30
2018-11-12T13:34:17.640Z,7.40
2018-11-12T13:36:45.559Z,6.57
2018-11-12T13:39:13.760Z,6.77
2018-11-12T13:41:41.632Z,6.23
2018-11-12T13:44:09.553Z,6.90
2018-11-12T13:47:14.258Z,6.63
2018-11-12T13:49:41.814Z,5.50
2018-11-12T13:52:09.485Z,5.70
2018-11-12T13:54:37.204Z,6.83
2018-11-12T13:57:05.273Z,6.63
2018-11-12T13:59:32.830Z,6.53
2018-11-12T14:02:00.406Z,6.60
2018-11-12T14:04:27.955Z,6.63
2018-11-12T14:06:55.513Z,6.50
2018-11-12T14:09:23.075Z,6.00
2018-11-12T14:11:50.856Z,7.13
2018-11-12T14:14:18.904Z,7.20
2018-11-12T14:16:47.030Z,7.97
2018-11-12T14:19:14.822Z,6.80
2018-11-12T14:21:43.882Z,6.83
2018-11-12T14:24:15.346Z,8.00
2018-11-12T14:26:45.524Z,8.63
2018-11-12T14:29:13.470Z,8.80
2018-11-12T14:31:41.505Z,9.00
2018-11-12T14:34:09.126Z,9.90
2018-11-12T14:36:42.468Z,10.70
2018-11-12T14:39:10.959Z,9.70
2018-11-12T14:41:40.623Z,11.53
2018-11-12T14:44:08.266Z,8.00
2018-11-12T14:46:35.835Z,8.03
2018-11-12T14:49:03.417Z,7.90
2018-11-12T14:51:31.022Z,7.70
2018-11-12T14:53:58.746Z,7.20
2018-11-12T14:56:26.327Z,6.90
2018-11-12T14:58:53.920Z,6.03
2018-11-12T15:01:21.493Z,6.33
2018-11-12T15:03:49.728Z,5.60
2018-11-12T15:06:17.768Z,5.17
2018-11-12T15:08:45.353Z,6.73
2018-11-12T15:11:13.134Z,4.47
2018-11-12T15:13:40.702Z,5.60
2018-11-12T15:16:08.327Z,5.80
2018-11-12T15:18:36.190Z,6.33
2018-11-12T15:21:03.849Z,5.23
2018-11-12T15:23:31.350Z,6.47
2018-11-12T15:25:58.907Z,5.93
2018-11-12T15:28:26.533Z,7.03
2018-11-12T15:30:54.167Z,6.43
2018-11-12T15:33:21.725Z,6.63
2018-11-12T15:35:49.357Z,7.83
2018-11-12T15:38:18.798Z,7.40
2018-11-12T15:40:51.084Z,8.50
2018-11-12T15:43:20.218Z,5.87
2018-11-12T15:45:50.452Z,7.83
2018-11-12T15:48:21.107Z,7.70
2018-11-12T15:50:49.515Z,7.57
2018-11-12T15:53:17.945Z,7.50
2018-11-12T15:55:46.752Z,9.90
2018-11-12T15:58:14.617Z,8.67
2018-11-12T16:00:44.234Z,7.50
2018-11-12T16:03:11.982Z,9.27
2018-11-12T16:05:39.863Z,9.13
2018-11-12T16:08:07.426Z,9.20
2018-11-12T16:10:35.065Z,9.20
2018-11-12T16:13:02.595Z,9.83
2018-11-12T16:15:30.178Z,10.67
2018-11-12T16:17:57.802Z,12.10
2018-11-12T16:20:28.800Z,13.67
2018-11-12T16:22:57.510Z,12.50
2018-11-12T16:25:25.691Z,14.37
2018-11-12T16:27:53.386Z,13.00
2018-11-12T16:30:21.294Z,13.90
2018-11-12T16:32:49.025Z,11.50
2018-11-12T16:35:21.330Z,11.50
2018-11-12T16:37:49.771Z,10.80
2018-11-12T16:40:17.417Z,10.83
2018-11-12T16:42:47.114Z,9.40
2018-11-12T16:45:16.415Z,11.50
2018-11-12T16:47:44.609Z,9.60
2018-11-12T16:50:13.047Z,8.83
2018-11-12T16:52:40.617Z,8.97
2018-11-12T16:55:09.021Z,8.40
2018-11-12T16:57:36.695Z,8.80
2018-11-12T17:00:07.996Z,8.07
2018-11-12T17:02:38.015Z,8.83
2018-11-12T17:05:06.839Z,9.20
2018-11-12T17:07:35.058Z,10.07
2018-11-12T17:10:04.688Z,9.10
2018-11-12T17:12:33.011Z,8.37
2018-11-12T17:15:01.247Z,7.03
2018-11-12T17:17:28.874Z,7.77
2018-11-12T17:19:56.534Z,8.23
2018-11-12T17:22:24.123Z,7.93
2018-11-12T17:24:51.882Z,7.03
2018-11-12T17:27:19.473Z,7.60
2018-11-12T17:29:53.675Z,5.53
2018-11-12T17:32:21.257Z,6.30
2018-11-12T17:34:48.814Z,7.00
2018-11-12T17:37:19.379Z,7.27
2018-11-12T17:39:49.748Z,6.50
2018-11-12T17:42:17.336Z,8.00
2018-11-12T17:44:45.012Z,8.03
2018-11-12T17:47:13.761Z,6.50
2018-11-12T17:49:41.849Z,6.23
2018-11-12T17:52:10.239Z,5.83
2018-11-12T17:54:38.613Z,6.70
2018-11-12T17:57:06.360Z,5.87
2018-11-12T17:59:33.916Z,7.00
2018-11-12T18:02:03.535Z,6.67
2018-11-12T18:04:32.285Z,8.07
2018-11-12T18:07:02.490Z,7.40
2018-11-12T18:09:31.549Z,7.00
2018-11-12T18:11:59.694Z,6.20
2018-11-12T18:14:27.383Z,7.30
2018-11-12T18:16:55.120Z,6.20
2018-11-12T18:19:23.007Z,7.20
2018-11-12T18:21:50.650Z,7.57
2018-11-12T18:24:18.163Z,7.10
2018-11-12T18:26:45.796Z,6.63
2018-11-12T18:29:13.533Z,7.60
2018-11-12T18:31:45.517Z,8.43
2018-11-12T18:34:14.654Z,7.37
2018-11-12T18:36:43.107Z,7.93
2018-11-12T18:39:11.625Z,7.20
2018-11-12T18:41:39.506Z,10.30
2018-11-12T18:44:07.421Z,9.13
2018-11-12T18:46:35.397Z,8.47
2018-11-12T18:49:03.110Z,9.37
2018-11-12T18:51:30.948Z,10.27
2018-11-12T18:53:58.737Z,10.23
2018-11-12T18:56:26.456Z,11.70
2018-11-12T18:58:54.020Z,12.80
2018-11-12T19:01:21.637Z,12.43
2018-11-12T19:03:49.266Z,10.00
2018-11-12T19:06:16.858Z,13.20
2018-11-12T19:08:44.438Z,12.50
2018-11-12T19:11:11.998Z,13.20
2018-11-12T19:13:39.571Z,12.13
2018-11-12T19:16:07.609Z,14.23
2018-11-12T19:18:35.399Z,15.30
2018-11-12T19:21:03.119Z,13.60
2018-11-12T19:23:30.750Z,15.53
2018-11-12T19:25:58.299Z,11.33
2018-11-12T19:28:25.897Z,9.30
2018-11-12T19:30:53.708Z,11.30
2018-11-12T19:33:21.273Z,14.47
2018-11-12T19:35:49.148Z,11.83
2018-11-12T19:38:16.986Z,12.60
2018-11-12T19:40:44.684Z,11.90
2018-11-12T19:43:12.642Z,11.60
2018-11-12T19:45:40.390Z,11.07
2018-11-12T19:48:08.183Z,9.53
2018-11-12T19:50:35.942Z,9.73
2018-11-12T19:53:03.614Z,8.30
2018-11-12T19:55:31.274Z,9.17
2018-11-12T19:57:58.832Z,9.90
2018-11-12T20:00:27.667Z,11.53
2018-11-12T20:02:56.297Z,8.80
2018-11-12T20:05:24.100Z,10.57
2018-11-12T20:07:51.771Z,10.63
2018-11-12T20:10:20.735Z,10.93
2018-11-12T20:12:48.386Z,9.17
2018-11-12T20:15:17.487Z,10.07
2018-11-12T20:17:47.309Z,11.20
2018-11-12T20:20:20.922Z,11.67
2018-11-12T20:22:49.335Z,11.83
2018-11-12T20:25:17.918Z,10.77
2018-11-12T20:27:46.184Z,9.67
2018-11-12T20:30:15.973Z,8.30
2018-11-12T20:32:44.514Z,8.90
2018-11-12T20:35:12.357Z,8.97
2018-11-12T20:37:40.133Z,10.37
2018-11-12T20:40:08.209Z,10.10
2018-11-12T20:42:35.948Z,10.47
2018-11-12T20:45:03.693Z,12.20
2018-11-12T20:47:31.354Z,9.83
2018-11-12T20:49:59.073Z,10.73
2018-11-12T20:52:26.800Z,11.93
2018-11-12T20:54:54.450Z,10.80
2018-11-12T20:57:22.124Z,10.20
2018-11-12T20:59:49.753Z,7.30
2018-11-12T21:02:17.320Z,8.90
2018-11-12T21:04:45.759Z,10.77
2018-11-12T21:07:13.558Z,9.07
2018-11-12T21:09:44.512Z,9.70
2018-11-12T21:12:12.191Z,10.83
2018-11-12T21:14:39.785Z,9.70
2018-11-12T21:17:07.428Z,10.30
2018-11-12T21:19:35.078Z,10.40
2018-11-12T21:22:02.811Z,9.70
2018-11-12T21:24:30.476Z,9.10
2018-11-12T21:26:58.242Z,10.97
2018-11-12T21:29:26.040Z,10.53
2018-11-12T21:31:53.835Z,9.80
2018-11-12T21:34:21.611Z,7.23
2018-11-12T21:36:49.344Z,10.83
2018-11-12T21:39:17.080Z,10.67
2018-11-12T21:41:45.009Z,12.40
2018-11-12T21:44:12.976Z,9.57
2018-11-12T21:46:41.645Z,10.10
2018-11-12T21:49:10.247Z,10.70
2018-11-12T21:51:37.896Z,8.70
2018-11-12T21:54:05.806Z,9.30
2018-11-12T21:56:33.504Z,11.37
2018-11-12T21:59:01.234Z,12.13
2018-11-12T22:01:29.471Z,11.53
2018-11-12T22:03:57.312Z,11.23
2018-11-12T22:06:24.885Z,12.90
2018-11-12T22:08:53.110Z,13.03
2018-11-12T22:11:21.223Z,12.40
2018-11-12T22:13:48.849Z,12.20
2018-11-12T22:16:16.764Z,12.93
2018-11-12T22:18:44.605Z,13.57
2018-11-12T22:21:12.202Z,13.50
2018-11-12T22:23:39.998Z,14.70
2018-11-12T22:26:15.498Z,15.30
2018-11-12T22:28:43.107Z,12.10
2018-11-12T22:31:10.807Z,12.67
2018-11-12T22:33:38.507Z,11.90
2018-11-12T22:36:06.265Z,10.57
2018-11-12T22:41:07.839Z,10.37
2018-11-12T22:43:35.474Z,10.10
2018-11-12T22:46:03.135Z,11.00
2018-11-12T22:48:30.720Z,10.47
2018-11-12T22:50:58.272Z,10.00
2018-11-12T22:53:26.902Z,10.73
2018-11-12T22:55:54.648Z,10.37
2018-11-12T22:58:22.359Z,8.90
2018-11-12T23:00:50.422Z,10.93
2018-11-12T23:03:39.417Z,9.90
2018-11-12T23:06:12.142Z,9.77
2018-11-12T23:08:41.048Z,8.50
2018-11-12T23:11:08.785Z,8.60
2018-11-12T23:13:36.621Z,8.30
2018-11-12T23:16:07.076Z,9.23
2018-11-12T23:18:36.304Z,8.37
2018-11-12T23:21:04.400Z,10.77
2018-11-12T23:23:32.017Z,7.87
2018-11-12T23:25:59.604Z,8.30
2018-11-12T23:28:27.146Z,8.27
2018-11-12T23:30:54.837Z,5.83
2018-11-12T23:33:22.422Z,7.70
2018-11-12T23:35:50.859Z,9.27
2018-11-12T23:38:18.486Z,10.07
2018-11-12T23:40:46.061Z,9.47
2018-11-12T23:43:13.579Z,9.80
2018-11-12T23:45:41.168Z,8.33
2018-11-12T23:48:08.760Z,10.27
2018-11-12T23:50:36.357Z,12.33
2018-11-12T23:53:04.035Z,12.70
2018-11-12T23:55:31.583Z,9.50
2018-11-12T23:57:59.211Z,10.40
